createdAt,value
2022-12-22T00:00:06.194Z,-2.40
2022-12-22T00:03:19.505Z,-2.46
2022-12-22T00:06:06.332Z,-2.51
2022-12-22T00:08:53.125Z,-2.54
2022-12-22T00:11:40.239Z,-2.56
2022-12-22T00:14:28.679Z,-2.56
2022-12-22T00:17:18.733Z,-2.57
2022-12-22T00:20:05.413Z,-2.57
2022-12-22T00:22:51.868Z,-2.55
2022-12-22T00:25:38.595Z,-2.55
2022-12-22T00:28:33.295Z,-2.53
2022-12-22T00:31:20.075Z,-2.46
2022-12-22T00:34:06.871Z,-2.39
2022-12-22T00:36:53.825Z,-2.35
2022-12-22T00:39:40.755Z,-2.31
2022-12-22T00:42:27.592Z,-2.31
2022-12-22T00:45:14.159Z,-2.32
2022-12-22T00:48:02.294Z,-2.39
2022-12-22T00:50:52.769Z,-2.45
2022-12-22T00:53:40.085Z,-2.44
2022-12-22T00:56:27.729Z,-2.45
2022-12-22T00:59:16.475Z,-2.46
2022-12-22T01:02:03.586Z,-2.50
2022-12-22T01:04:50.360Z,-2.52
2022-12-22T01:07:41.047Z,-2.55
2022-12-22T01:10:32.969Z,-2.57
2022-12-22T01:13:19.603Z,-2.64
2022-12-22T01:16:06.541Z,-2.75
2022-12-22T01:18:53.167Z,-2.85
2022-12-22T01:21:39.899Z,-2.89
2022-12-22T01:24:34.798Z,-2.89
2022-12-22T01:27:22.489Z,-2.86
2022-12-22T01:30:09.214Z,-2.86
2022-12-22T01:32:55.761Z,-2.85
2022-12-22T01:35:44.860Z,-2.83
2022-12-22T01:38:31.577Z,-2.82
2022-12-22T01:41:20.799Z,-2.78
2022-12-22T01:44:07.890Z,-2.74
2022-12-22T01:47:01.487Z,-2.67
2022-12-22T01:49:54.538Z,-2.60
2022-12-22T01:52:44.828Z,-2.58
2022-12-22T01:55:35.780Z,-2.56
2022-12-22T01:58:24.543Z,-2.52
2022-12-22T02:01:11.549Z,-2.47
2022-12-22T02:03:59.987Z,-2.43
2022-12-22T02:06:59.482Z,-2.41
2022-12-22T02:10:13.693Z,-2.40
2022-12-22T02:13:42.608Z,-2.41
2022-12-22T02:16:49.997Z,-2.44
2022-12-22T02:19:54.904Z,-2.47
2022-12-22T02:22:54.077Z,-2.48
2022-12-22T02:25:49.225Z,-2.50
2022-12-22T02:28:35.821Z,-2.53
2022-12-22T02:31:25.165Z,-2.58
2022-12-22T02:34:12.112Z,-2.65
2022-12-22T02:37:19.137Z,-2.69
2022-12-22T02:40:37.249Z,-2.71
2022-12-22T02:43:59.619Z,-2.76
2022-12-22T02:46:49.365Z,-2.79
2022-12-22T02:49:50.046Z,-2.81
2022-12-22T02:52:53.358Z,-2.84
2022-12-22T02:55:40.631Z,-2.87
2022-12-22T02:58:27.563Z,-2.87
2022-12-22T03:01:14.356Z,-2.85
2022-12-22T03:04:00.932Z,-2.87
2022-12-22T03:06:47.585Z,-2.88
2022-12-22T03:09:34.203Z,-2.87
2022-12-22T03:12:20.841Z,-2.83
2022-12-22T03:15:07.709Z,-2.78
2022-12-22T03:17:54.341Z,-2.71
2022-12-22T03:20:41.013Z,-2.68
2022-12-22T03:23:27.560Z,-2.69
2022-12-22T03:25:55.756Z,-2.65
2022-12-22T03:28:26.951Z,-2.63
2022-12-22T03:31:06.316Z,-2.59
2022-12-22T03:33:34.498Z,-2.57
2022-12-22T03:36:03.034Z,-2.57
2022-12-22T03:38:31.447Z,-2.55
2022-12-22T03:40:59.585Z,-2.53
2022-12-22T03:43:46.399Z,-2.51
2022-12-22T03:46:32.230Z,-2.47
2022-12-22T03:49:11.378Z,-2.50
2022-12-22T03:51:47.938Z,-2.52
2022-12-22T03:54:18.966Z,-2.52
2022-12-22T03:56:48.865Z,-2.51
2022-12-22T03:59:18.070Z,-2.49
2022-12-22T04:01:49.261Z,-2.45
2022-12-22T04:04:20.619Z,-2.41
2022-12-22T04:06:49.146Z,-2.39
2022-12-22T04:09:17.906Z,-2.36
2022-12-22T04:12:04.517Z,-2.33
2022-12-22T04:14:34.648Z,-2.30
2022-12-22T04:17:04.833Z,-2.25
2022-12-22T04:19:33.554Z,-2.20
2022-12-22T04:22:02.050Z,-2.14
2022-12-22T04:24:30.046Z,-2.15
2022-12-22T04:26:58.314Z,-2.15
2022-12-22T04:29:26.486Z,-2.18
2022-12-22T04:31:54.813Z,-2.24
2022-12-22T04:34:23.092Z,-2.21
2022-12-22T04:36:51.262Z,-2.18
2022-12-22T04:39:19.523Z,-2.13
2022-12-22T04:41:47.551Z,-2.06
2022-12-22T04:44:15.574Z,-1.98
2022-12-22T04:46:44.074Z,-1.91
2022-12-22T04:49:12.585Z,-1.86
2022-12-22T04:51:40.925Z,-1.82
2022-12-22T04:54:09.212Z,-1.82
2022-12-22T04:56:37.274Z,-1.79
2022-12-22T04:59:05.291Z,-1.78
2022-12-22T05:01:33.542Z,-1.75
2022-12-22T05:04:01.979Z,-1.76
2022-12-22T05:06:30.119Z,-1.78
2022-12-22T05:08:58.444Z,-1.79
2022-12-22T05:11:26.501Z,-1.78
2022-12-22T05:13:54.628Z,-1.78
2022-12-22T05:16:22.787Z,-1.76
2022-12-22T05:18:50.780Z,-1.75
2022-12-22T05:21:21.374Z,-1.74
2022-12-22T05:23:50.583Z,-1.72
2022-12-22T05:26:19.794Z,-1.68
2022-12-22T05:28:48.363Z,-1.62
2022-12-22T05:31:22.148Z,-1.59
2022-12-22T05:33:50.912Z,-1.55
2022-12-22T05:36:20.115Z,-1.53
2022-12-22T05:38:49.000Z,-1.55
2022-12-22T05:41:17.571Z,-1.57
2022-12-22T05:43:45.891Z,-1.55
2022-12-22T05:46:14.463Z,-1.53
2022-12-22T05:48:42.785Z,-1.53
2022-12-22T05:51:11.463Z,-1.54
2022-12-22T05:53:40.828Z,-1.53
2022-12-22T05:56:09.346Z,-1.57
2022-12-22T05:58:40.383Z,-1.57
2022-12-22T06:01:09.448Z,-1.56
2022-12-22T06:03:38.155Z,-1.54
2022-12-22T06:06:06.702Z,-1.52
2022-12-22T06:08:34.957Z,-1.52
2022-12-22T06:11:03.268Z,-1.56
2022-12-22T06:13:31.632Z,-1.59
2022-12-22T06:16:00.286Z,-1.61
2022-12-22T06:18:28.595Z,-1.66
2022-12-22T06:20:56.833Z,-1.67
2022-12-22T06:23:24.867Z,-1.64
2022-12-22T06:26:01.906Z,-1.62
2022-12-22T06:28:31.472Z,-1.58
2022-12-22T06:30:59.721Z,-1.55
2022-12-22T06:33:28.054Z,-1.51
2022-12-22T06:35:58.926Z,-1.45
2022-12-22T06:38:28.535Z,-1.40
2022-12-22T06:40:57.160Z,-1.38
2022-12-22T06:43:26.288Z,-1.32
2022-12-22T06:45:54.823Z,-1.25
2022-12-22T06:48:22.920Z,-1.21
2022-12-22T06:50:51.371Z,-1.20
2022-12-22T06:53:19.650Z,-1.19
2022-12-22T06:55:48.160Z,-1.19
2022-12-22T06:58:18.959Z,-1.21
2022-12-22T07:01:14.180Z,-1.19
2022-12-22T07:03:48.670Z,-1.16
2022-12-22T07:06:19.762Z,-1.13
2022-12-22T07:08:49.120Z,-1.09
2022-12-22T07:11:17.864Z,-1.03
2022-12-22T07:13:46.145Z,-0.94
2022-12-22T07:16:14.320Z,-0.86
2022-12-22T07:18:43.223Z,-0.77
2022-12-22T07:21:13.329Z,-0.67
2022-12-22T07:23:42.001Z,-0.61
2022-12-22T07:26:11.477Z,-0.54
2022-12-22T07:28:41.476Z,-0.46
2022-12-22T07:31:11.628Z,-0.38
2022-12-22T07:33:40.243Z,-0.30
2022-12-22T07:36:12.883Z,-0.24
2022-12-22T07:38:43.588Z,-0.20
2022-12-22T07:41:34.274Z,-0.16
2022-12-22T07:44:04.339Z,-0.17
2022-12-22T07:46:35.694Z,-0.14
2022-12-22T07:49:24.211Z,-0.14
2022-12-22T07:51:53.409Z,-0.15
2022-12-22T07:54:21.775Z,-0.11
2022-12-22T07:56:50.750Z,-0.07
2022-12-22T07:59:19.118Z,-0.07
2022-12-22T08:01:47.928Z,-0.07
2022-12-22T08:04:16.549Z,-0.04
2022-12-22T08:06:45.208Z,-0.00
2022-12-22T08:09:16.133Z,0.05
2022-12-22T08:11:44.568Z,0.13
2022-12-22T08:14:13.646Z,0.21
2022-12-22T08:16:42.515Z,0.29
2022-12-22T08:19:11.540Z,0.28
2022-12-22T08:21:40.145Z,0.22
2022-12-22T08:24:08.959Z,0.27
2022-12-22T08:26:44.152Z,0.32
2022-12-22T08:29:18.011Z,0.38
2022-12-22T08:31:47.390Z,0.51
2022-12-22T08:34:16.815Z,0.58
2022-12-22T08:36:49.796Z,0.52
2022-12-22T08:39:20.390Z,0.60
2022-12-22T08:41:52.892Z,0.70
2022-12-22T08:44:27.627Z,0.79
2022-12-22T08:46:58.273Z,0.86
2022-12-22T08:49:28.081Z,0.76
2022-12-22T08:51:57.096Z,0.77
2022-12-22T08:54:25.666Z,0.82
2022-12-22T08:56:54.183Z,0.91
2022-12-22T08:59:22.535Z,1.01
2022-12-22T09:01:51.500Z,1.16
2022-12-22T09:04:22.597Z,1.33
2022-12-22T09:06:54.198Z,1.51
2022-12-22T09:09:22.829Z,1.66
2022-12-22T09:11:51.356Z,1.82
2022-12-22T09:14:19.933Z,1.99
2022-12-22T09:16:48.361Z,2.10
2022-12-22T09:19:17.215Z,2.16
2022-12-22T09:21:46.448Z,2.19
2022-12-22T09:24:15.444Z,2.18
2022-12-22T09:26:43.832Z,2.11
2022-12-22T09:29:15.956Z,2.06
2022-12-22T09:31:45.197Z,2.06
2022-12-22T09:34:18.057Z,1.94
2022-12-22T09:36:47.935Z,1.90
2022-12-22T09:39:16.851Z,1.96
2022-12-22T09:41:52.091Z,2.02
2022-12-22T09:44:28.066Z,2.03
2022-12-22T09:47:00.543Z,2.04
2022-12-22T09:49:29.415Z,2.06
2022-12-22T09:52:02.867Z,2.06
2022-12-22T09:54:31.949Z,2.05
2022-12-22T09:57:01.765Z,2.04
2022-12-22T09:59:31.381Z,2.08
2022-12-22T10:02:29.251Z,2.13
2022-12-22T10:05:15.465Z,2.17
2022-12-22T10:07:44.773Z,2.21
2022-12-22T10:10:20.127Z,2.25
2022-12-22T10:12:49.919Z,2.26
2022-12-22T10:15:21.857Z,2.30
2022-12-22T10:17:54.500Z,2.22
2022-12-22T10:20:28.432Z,2.16
2022-12-22T10:22:59.542Z,2.08
2022-12-22T10:28:39.848Z,2.16
2022-12-22T10:31:22.062Z,2.23
2022-12-22T10:33:54.435Z,2.31
2022-12-22T10:36:32.418Z,2.36
2022-12-22T10:39:04.616Z,2.41
2022-12-22T10:41:38.595Z,2.53
2022-12-22T10:44:11.654Z,2.61
2022-12-22T10:46:48.526Z,2.60
2022-12-22T10:49:23.988Z,2.56
2022-12-22T10:52:10.383Z,2.47
2022-12-22T10:54:41.433Z,2.37
2022-12-22T10:57:16.767Z,2.23
2022-12-22T10:59:52.516Z,2.32
2022-12-22T11:02:21.428Z,2.43
2022-12-22T11:04:51.649Z,2.48
2022-12-22T11:07:20.740Z,2.56
2022-12-22T11:09:49.189Z,2.63
2022-12-22T11:12:45.103Z,2.73
2022-12-22T11:15:35.634Z,2.59
2022-12-22T11:18:19.012Z,2.64
2022-12-22T11:20:54.393Z,2.74
2022-12-22T11:23:25.852Z,2.85
2022-12-22T11:26:17.554Z,2.91
2022-12-22T11:28:55.092Z,2.91
2022-12-22T11:31:35.404Z,2.92
2022-12-22T11:34:37.378Z,2.91
2022-12-22T11:37:43.303Z,2.96
2022-12-22T11:40:40.207Z,3.05
2022-12-22T11:43:52.568Z,3.14
2022-12-22T11:47:04.880Z,3.25
2022-12-22T11:49:47.432Z,3.35
2022-12-22T11:52:27.261Z,3.39
2022-12-22T11:55:20.518Z,3.38
2022-12-22T11:58:17.007Z,3.35
2022-12-22T12:01:14.130Z,3.31
2022-12-22T12:04:03.823Z,3.26
2022-12-22T12:07:01.372Z,3.27
2022-12-22T12:09:43.526Z,3.28
2022-12-22T12:12:48.802Z,3.33
2022-12-22T12:15:31.005Z,3.40
2022-12-22T12:18:18.183Z,3.45
2022-12-22T12:21:22.347Z,3.48
2022-12-22T12:24:07.289Z,3.50
2022-12-22T12:26:54.559Z,3.48
2022-12-22T12:29:28.155Z,3.43
2022-12-22T12:32:07.605Z,3.45
2022-12-22T12:34:42.906Z,3.51
2022-12-22T12:37:21.395Z,3.57
2022-12-22T12:40:14.976Z,3.67
2022-12-22T12:42:45.870Z,3.75
2022-12-22T12:45:34.818Z,3.74
2022-12-22T12:48:21.982Z,3.66
2022-12-22T12:50:57.441Z,3.66
2022-12-22T12:53:30.183Z,3.68
2022-12-22T12:55:59.873Z,3.65
2022-12-22T12:58:40.201Z,3.63
2022-12-22T13:01:27.158Z,3.66
2022-12-22T13:04:05.173Z,3.72
2022-12-22T13:06:49.234Z,3.76
2022-12-22T13:12:41.520Z,3.70
2022-12-22T13:15:33.724Z,3.61
2022-12-22T13:18:25.568Z,3.52
2022-12-22T13:21:18.666Z,3.43
2022-12-22T13:24:23.462Z,3.35
2022-12-22T13:26:47.322Z,3.31
2022-12-22T13:29:19.477Z,3.29
2022-12-22T13:31:58.138Z,3.28
2022-12-22T13:35:04.837Z,3.23
2022-12-22T13:37:42.170Z,3.12
2022-12-22T13:40:31.535Z,3.05
2022-12-22T13:43:15.633Z,3.05
2022-12-22T13:45:48.545Z,3.06
2022-12-22T13:48:21.056Z,3.08
2022-12-22T13:51:09.065Z,3.12
2022-12-22T13:56:57.205Z,3.23
2022-12-22T13:59:33.181Z,3.28
2022-12-22T14:02:09.031Z,3.31
2022-12-22T14:04:40.742Z,3.33
2022-12-22T14:07:17.716Z,3.34
2022-12-22T14:09:48.698Z,3.35
2022-12-22T14:12:21.242Z,3.34
2022-12-22T14:14:52.003Z,3.34
2022-12-22T14:17:28.939Z,3.36
2022-12-22T14:20:01.733Z,3.37
2022-12-22T14:22:43.442Z,3.38
2022-12-22T14:25:38.606Z,3.37
2022-12-22T14:28:17.701Z,3.34
2022-12-22T14:30:50.831Z,3.32
2022-12-22T14:33:28.281Z,3.30
2022-12-22T14:36:27.226Z,3.29
2022-12-22T14:39:02.369Z,3.27
2022-12-22T14:41:54.949Z,3.24
2022-12-22T14:44:24.028Z,3.25
2022-12-22T14:47:17.846Z,3.28
2022-12-22T14:50:16.952Z,3.28
2022-12-22T14:52:51.251Z,3.24
2022-12-22T14:55:27.990Z,3.25
2022-12-22T14:58:15.443Z,3.30
2022-12-22T15:00:47.093Z,3.34
2022-12-22T15:03:34.808Z,3.38
2022-12-22T15:06:26.911Z,3.40
2022-12-22T15:09:12.143Z,3.39
2022-12-22T15:11:42.385Z,3.38
2022-12-22T15:14:21.608Z,3.40
2022-12-22T15:16:50.924Z,3.35
2022-12-22T15:19:22.724Z,3.29
2022-12-22T15:21:51.925Z,3.26
2022-12-22T15:24:20.596Z,3.21
2022-12-22T15:26:49.164Z,3.18
2022-12-22T15:29:18.096Z,3.14
2022-12-22T15:31:46.715Z,3.13
2022-12-22T15:34:26.304Z,3.10
2022-12-22T15:36:55.291Z,3.06
2022-12-22T15:39:24.872Z,3.04
2022-12-22T15:41:53.381Z,3.03
2022-12-22T15:44:22.580Z,3.03
2022-12-22T15:46:56.506Z,3.05
2022-12-22T15:49:28.472Z,3.06
2022-12-22T15:52:01.541Z,3.06
2022-12-22T15:54:33.413Z,3.08
2022-12-22T15:57:03.000Z,3.10
2022-12-22T15:59:31.799Z,3.12
2022-12-22T16:02:02.467Z,3.12
2022-12-22T16:04:31.267Z,3.14
2022-12-22T16:06:59.912Z,3.16
2022-12-22T16:09:38.365Z,3.17
2022-12-22T16:12:16.481Z,3.16
2022-12-22T16:14:51.039Z,3.14
2022-12-22T16:17:23.856Z,3.13
2022-12-22T16:19:52.247Z,3.13
2022-12-22T16:22:28.234Z,3.14
2022-12-22T16:24:56.996Z,3.14
2022-12-22T16:27:25.558Z,3.14
2022-12-22T16:29:54.761Z,3.16
2022-12-22T16:32:32.364Z,3.21
2022-12-22T16:35:09.658Z,3.26
2022-12-22T16:37:38.541Z,3.29
2022-12-22T16:40:08.122Z,3.30
2022-12-22T16:45:28.884Z,3.36
2022-12-22T16:48:05.145Z,3.38
2022-12-22T16:50:34.326Z,3.37
2022-12-22T16:53:05.355Z,3.28
2022-12-22T16:55:36.003Z,3.23
2022-12-22T16:58:12.957Z,3.21
2022-12-22T17:00:44.983Z,3.21
2022-12-22T17:03:28.883Z,3.19
2022-12-22T17:06:03.673Z,3.17
2022-12-22T17:08:42.276Z,3.13
2022-12-22T17:11:20.336Z,3.08
2022-12-22T17:13:50.775Z,3.06
2022-12-22T17:16:22.261Z,3.05
2022-12-22T17:18:50.767Z,3.02
2022-12-22T17:21:19.941Z,3.00
2022-12-22T17:23:54.977Z,2.96
2022-12-22T17:26:25.792Z,2.92
2022-12-22T17:28:54.074Z,2.90
2022-12-22T17:31:23.244Z,2.91
2022-12-22T17:33:51.797Z,2.94
2022-12-22T17:36:32.214Z,2.95
2022-12-22T17:39:01.638Z,2.97
2022-12-22T17:41:30.710Z,3.03
2022-12-22T17:44:00.493Z,3.09
2022-12-22T17:46:29.325Z,3.16
2022-12-22T17:48:57.822Z,3.24
2022-12-22T17:51:29.291Z,3.29
2022-12-22T17:53:59.200Z,3.32
2022-12-22T17:56:29.718Z,3.30
2022-12-22T17:58:58.184Z,3.29
2022-12-22T18:01:32.561Z,3.26
2022-12-22T18:04:01.244Z,3.22
2022-12-22T18:06:34.149Z,3.18
2022-12-22T18:09:04.161Z,3.14
2022-12-22T18:11:32.736Z,3.08
2022-12-22T18:14:01.454Z,3.01
2022-12-22T18:16:30.160Z,2.94
2022-12-22T18:18:59.260Z,2.87
2022-12-22T18:21:28.856Z,2.81
2022-12-22T18:23:57.605Z,2.77
2022-12-22T18:26:29.000Z,2.73
2022-12-22T18:28:58.003Z,2.70
2022-12-22T18:31:28.781Z,2.67
2022-12-22T18:33:57.195Z,2.64
2022-12-22T18:36:31.904Z,2.64
2022-12-22T18:39:01.775Z,2.65
2022-12-22T18:41:35.016Z,2.66
2022-12-22T18:44:03.920Z,2.67
2022-12-22T18:46:33.238Z,2.66
2022-12-22T18:49:05.634Z,2.62
2022-12-22T18:51:34.647Z,2.62
2022-12-22T18:54:03.450Z,2.58
2022-12-22T18:56:32.166Z,2.55
2022-12-22T18:59:00.535Z,2.54
2022-12-22T19:01:29.348Z,2.55
2022-12-22T19:03:59.335Z,2.60
2022-12-22T19:06:27.799Z,2.62
2022-12-22T19:08:56.247Z,2.57
2022-12-22T19:11:33.880Z,2.54
2022-12-22T19:14:02.310Z,2.50
2022-12-22T19:16:30.803Z,2.47
2022-12-22T19:19:01.785Z,2.44
2022-12-22T19:21:30.162Z,2.40
2022-12-22T19:23:58.371Z,2.32
2022-12-22T19:26:27.227Z,2.28
2022-12-22T19:29:01.289Z,2.30
2022-12-22T19:31:33.181Z,2.30
2022-12-22T19:34:05.771Z,2.31
2022-12-22T19:36:34.597Z,2.32
2022-12-22T19:39:05.200Z,2.34
2022-12-22T19:41:51.698Z,2.34
2022-12-22T19:44:29.220Z,2.39
2022-12-22T19:46:59.531Z,2.41
2022-12-22T19:49:29.383Z,2.43
2022-12-22T19:51:58.196Z,2.43
2022-12-22T19:54:28.220Z,2.43
2022-12-22T19:56:56.628Z,2.41
2022-12-22T19:59:38.701Z,2.35
2022-12-22T20:02:32.174Z,2.29
2022-12-22T20:05:01.281Z,2.20
2022-12-22T20:07:33.116Z,2.15
2022-12-22T20:10:01.611Z,2.10
2022-12-22T20:12:33.746Z,2.02
2022-12-22T20:15:13.518Z,1.93
2022-12-22T20:17:42.325Z,1.89
2022-12-22T20:20:20.516Z,1.89
2022-12-22T20:22:55.575Z,1.89
2022-12-22T20:25:28.263Z,1.88
2022-12-22T20:27:56.869Z,1.90
2022-12-22T20:30:28.964Z,1.92
2022-12-22T20:32:57.389Z,1.93
2022-12-22T20:35:26.193Z,1.97
2022-12-22T20:37:54.461Z,1.99
2022-12-22T20:40:26.278Z,2.03
2022-12-22T20:42:54.983Z,2.11
2022-12-22T20:45:26.988Z,2.18
2022-12-22T20:47:55.857Z,2.23
2022-12-22T20:50:27.090Z,2.25
2022-12-22T20:52:57.506Z,2.28
2022-12-22T20:55:27.815Z,2.23
2022-12-22T20:57:56.042Z,2.21
2022-12-22T21:00:27.462Z,2.22
2022-12-22T21:02:56.201Z,2.23
2022-12-22T21:05:24.729Z,2.24
2022-12-22T21:07:52.795Z,2.25
2022-12-22T21:10:24.014Z,2.23
2022-12-22T21:12:52.721Z,2.24
2022-12-22T21:15:28.364Z,2.24
2022-12-22T21:17:58.750Z,2.28
2022-12-22T21:20:29.373Z,2.32
2022-12-22T21:22:57.535Z,2.37
2022-12-22T21:25:26.532Z,2.43
2022-12-22T21:27:54.723Z,2.47
2022-12-22T21:30:26.097Z,2.52
2022-12-22T21:32:54.963Z,2.53
2022-12-22T21:35:34.453Z,2.55
2022-12-22T21:38:03.135Z,2.59
2022-12-22T21:40:32.756Z,2.54
2022-12-22T21:43:01.001Z,2.51
2022-12-22T21:45:31.967Z,2.47
2022-12-22T21:48:01.095Z,2.44
2022-12-22T21:50:34.787Z,2.40
2022-12-22T21:53:03.125Z,2.34
2022-12-22T21:55:34.636Z,2.28
2022-12-22T21:58:04.835Z,2.24
2022-12-22T22:00:34.902Z,2.21
2022-12-22T22:03:03.977Z,2.24
2022-12-22T22:05:35.326Z,2.27
2022-12-22T22:08:06.591Z,2.28
2022-12-22T22:10:40.537Z,2.34
2022-12-22T22:13:11.880Z,2.40
2022-12-22T22:15:40.265Z,2.48
2022-12-22T22:18:16.751Z,2.54
2022-12-22T22:20:45.609Z,2.53
2022-12-22T22:23:15.075Z,2.50
2022-12-22T22:25:43.341Z,2.51
2022-12-22T22:28:11.676Z,2.53
2022-12-22T22:30:42.196Z,2.54
2022-12-22T22:33:10.735Z,2.55
2022-12-22T22:35:40.775Z,2.55
2022-12-22T22:38:17.649Z,2.56
2022-12-22T22:40:47.469Z,2.54
2022-12-22T22:43:15.760Z,2.51
2022-12-22T22:45:44.008Z,2.48
2022-12-22T22:48:23.176Z,2.47
2022-12-22T22:50:51.928Z,2.46
2022-12-22T22:53:20.171Z,2.45
2022-12-22T22:55:48.309Z,2.43
2022-12-22T22:58:16.338Z,2.42
2022-12-22T23:00:44.351Z,2.41
2022-12-22T23:03:12.379Z,2.42
2022-12-22T23:05:40.428Z,2.43
2022-12-22T23:08:08.538Z,2.45
2022-12-22T23:10:41.572Z,2.50
2022-12-22T23:13:10.110Z,2.54
2022-12-22T23:15:38.583Z,2.55
2022-12-22T23:18:06.871Z,2.58
2022-12-22T23:20:35.388Z,2.61
2022-12-22T23:23:03.651Z,2.63
2022-12-22T23:25:32.145Z,2.72
2022-12-22T23:28:00.130Z,2.77
2022-12-22T23:30:28.210Z,2.69
2022-12-22T23:32:56.205Z,2.68
2022-12-22T23:35:24.246Z,2.73
2022-12-22T23:37:52.407Z,2.76
2022-12-22T23:43:11.723Z,2.77
2022-12-22T23:45:40.725Z,2.77
2022-12-22T23:48:09.585Z,2.78
2022-12-22T23:50:37.689Z,2.75
2022-12-22T23:53:06.008Z,2.73
2022-12-22T23:55:34.378Z,2.74
2022-12-22T23:58:02.491Z,2.74
